createdAt,value
2018-12-10T00:03:17.117Z,7.02
2018-12-10T00:08:19.672Z,7.29
2018-12-10T00:13:22.991Z,7.16
2018-12-10T00:18:25.541Z,6.93
2018-12-10T00:23:28.169Z,6.88
2018-12-10T00:28:30.986Z,6.89
2018-12-10T00:33:34.318Z,6.92
2018-12-10T00:38:36.961Z,6.95
2018-12-10T00:43:40.327Z,6.89
2018-12-10T00:48:43.024Z,6.85
2018-12-10T00:53:46.857Z,7.13
2018-12-10T00:58:49.436Z,6.95
2018-12-10T01:03:52.128Z,6.90
2018-12-10T01:08:55.316Z,6.73
2018-12-10T01:13:58.717Z,6.81
2018-12-10T01:19:01.290Z,6.69
2018-12-10T01:24:03.924Z,6.68
2018-12-10T01:29:06.485Z,6.65
2018-12-10T01:34:09.812Z,6.89
2018-12-10T01:39:12.397Z,6.62
2018-12-10T01:44:14.959Z,6.66
2018-12-10T01:49:18.013Z,6.58
2018-12-10T01:54:20.766Z,6.75
2018-12-10T01:59:23.345Z,6.72
2018-12-10T02:04:25.972Z,6.63
2018-12-10T02:09:28.517Z,6.63
2018-12-10T02:14:31.193Z,6.62
2018-12-10T02:19:33.871Z,6.61
2018-12-10T02:24:37.136Z,6.63
2018-12-10T02:29:39.971Z,6.66
2018-12-10T02:34:42.572Z,6.74
2018-12-10T02:39:45.239Z,6.72
2018-12-10T02:44:48.645Z,6.63
2018-12-10T02:49:51.887Z,6.64
2018-12-10T02:54:54.502Z,6.51
2018-12-10T02:59:57.264Z,6.75
2018-12-10T03:04:59.823Z,6.39
2018-12-10T03:10:02.393Z,6.33
2018-12-10T03:15:05.188Z,6.51
2018-12-10T03:20:07.746Z,6.38
2018-12-10T03:25:10.375Z,6.41
2018-12-10T03:30:13.384Z,6.18
2018-12-10T03:35:15.947Z,6.16
2018-12-10T03:40:19.199Z,6.17
2018-12-10T03:45:21.806Z,6.08
2018-12-10T03:50:24.344Z,6.00
2018-12-10T03:55:26.976Z,6.03
2018-12-10T04:00:30.165Z,5.99
2018-12-10T04:05:32.704Z,6.04
2018-12-10T04:10:35.267Z,5.79
2018-12-10T04:15:37.884Z,5.84
2018-12-10T04:20:40.618Z,5.82
2018-12-10T04:25:43.290Z,5.96
2018-12-10T04:30:45.926Z,5.77
2018-12-10T04:35:48.722Z,5.87
2018-12-10T04:40:51.786Z,6.62
2018-12-10T04:45:55.152Z,6.00
2018-12-10T04:50:57.911Z,5.99
2018-12-10T04:56:00.582Z,6.27
2018-12-10T05:01:03.188Z,5.81
2018-12-10T05:06:05.962Z,5.87
2018-12-10T05:11:08.480Z,5.79
2018-12-10T05:16:11.034Z,5.71
2018-12-10T05:21:13.650Z,5.75
2018-12-10T05:26:16.303Z,5.72
2018-12-10T05:31:18.836Z,5.66
2018-12-10T05:36:21.469Z,5.65
2018-12-10T05:41:24.120Z,5.82
2018-12-10T05:46:26.707Z,5.69
2018-12-10T05:51:29.877Z,5.72
2018-12-10T05:56:32.578Z,5.85
2018-12-10T06:01:36.140Z,5.96
2018-12-10T06:06:38.891Z,5.66
2018-12-10T06:11:41.528Z,5.60
2018-12-10T06:16:44.105Z,5.59
2018-12-10T06:21:46.800Z,5.35
2018-12-10T06:26:49.429Z,5.45
2018-12-10T06:31:51.956Z,5.19
2018-12-10T06:36:54.552Z,5.20
2018-12-10T06:41:57.714Z,5.47
2018-12-10T06:47:00.261Z,5.13
2018-12-10T06:52:02.836Z,5.50
2018-12-10T06:57:05.625Z,5.33
2018-12-10T07:02:08.457Z,5.59
2018-12-10T07:07:11.074Z,5.37
2018-12-10T07:12:13.674Z,5.42
2018-12-10T07:17:16.232Z,5.40
2018-12-10T07:22:18.793Z,5.53
2018-12-10T07:27:21.404Z,5.28
2018-12-10T07:32:23.981Z,5.22
2018-12-10T07:37:26.630Z,5.34
2018-12-10T07:42:29.337Z,5.02
2018-12-10T07:47:31.889Z,5.32
2018-12-10T07:52:34.453Z,5.28
2018-12-10T07:57:37.570Z,5.45
2018-12-10T08:02:40.141Z,5.59
2018-12-10T08:07:43.452Z,5.80
2018-12-10T08:12:46.609Z,5.93
2018-12-10T08:17:49.188Z,5.64
2018-12-10T08:22:52.800Z,5.57
2018-12-10T08:27:55.422Z,5.71
2018-12-10T08:32:57.944Z,5.54
2018-12-10T08:38:00.567Z,5.73
2018-12-10T08:43:04.085Z,5.73
2018-12-10T08:48:06.674Z,5.73
2018-12-10T08:53:09.741Z,5.51
2018-12-10T08:58:12.287Z,5.39
2018-12-10T09:03:14.919Z,5.91
2018-12-10T09:08:17.470Z,5.83
2018-12-10T09:13:20.641Z,5.85
2018-12-10T09:18:23.247Z,5.52
2018-12-10T09:23:25.815Z,5.83
2018-12-10T09:28:28.426Z,5.74
2018-12-10T09:33:31.046Z,5.96
2018-12-10T09:38:33.668Z,5.63
2018-12-10T09:43:36.790Z,5.61
2018-12-10T09:48:39.342Z,5.62
2018-12-10T09:53:41.965Z,5.93
2018-12-10T09:58:44.640Z,5.91
2018-12-10T10:03:47.213Z,6.10
2018-12-10T10:08:50.074Z,5.71
2018-12-10T10:13:53.683Z,5.98
2018-12-10T10:18:56.273Z,5.80
2018-12-10T10:23:59.630Z,5.94
2018-12-10T10:29:02.467Z,5.77
2018-12-10T10:34:05.035Z,5.86
2018-12-10T10:39:07.581Z,6.27
2018-12-10T10:44:10.283Z,6.37
2018-12-10T10:49:12.825Z,6.15
2018-12-10T10:54:16.411Z,6.35
2018-12-10T10:59:19.050Z,6.62
2018-12-10T11:04:22.380Z,6.29
2018-12-10T11:09:24.926Z,6.51
2018-12-10T11:14:27.479Z,6.30
2018-12-10T11:19:30.677Z,6.43
2018-12-10T11:24:33.313Z,6.62
2018-12-10T11:29:35.853Z,6.79
2018-12-10T11:34:38.417Z,5.88
2018-12-10T11:39:41.051Z,5.95
2018-12-10T11:44:43.758Z,4.77
2018-12-10T11:49:46.344Z,5.37
2018-12-10T11:54:49.531Z,5.26
2018-12-10T11:59:52.151Z,5.51
2018-12-10T12:04:54.995Z,4.74
2018-12-10T12:09:57.580Z,4.96
2018-12-10T12:15:00.242Z,5.22
2018-12-10T12:20:03.222Z,5.48
2018-12-10T12:25:05.984Z,6.05
2018-12-10T12:30:09.333Z,6.16
2018-12-10T12:35:11.885Z,6.24
2018-12-10T12:40:14.551Z,6.05
2018-12-10T12:45:17.314Z,6.46
2018-12-10T12:50:20.091Z,6.34
2018-12-10T12:55:22.934Z,5.80
2018-12-10T13:00:27.280Z,6.17
2018-12-10T13:05:30.301Z,6.04
2018-12-10T13:10:32.940Z,6.15
2018-12-10T13:15:35.489Z,6.01
2018-12-10T13:20:38.061Z,5.99
2018-12-10T13:25:40.681Z,6.32
2018-12-10T13:30:43.369Z,6.26
2018-12-10T13:35:45.987Z,6.00
2018-12-10T13:40:48.595Z,6.21
2018-12-10T13:45:51.903Z,6.11
2018-12-10T13:50:54.538Z,6.22
2018-12-10T13:55:57.242Z,6.26
2018-12-10T14:01:00.085Z,6.40
2018-12-10T14:06:02.780Z,6.10
2018-12-10T14:11:05.941Z,6.13
2018-12-10T14:16:08.509Z,6.31
2018-12-10T14:21:11.110Z,6.19
2018-12-10T14:26:13.756Z,6.09
2018-12-10T14:31:16.293Z,5.90
2018-12-10T14:36:18.949Z,5.94
2018-12-10T14:41:21.549Z,5.98
2018-12-10T14:46:24.156Z,5.82
2018-12-10T14:51:26.729Z,5.78
2018-12-10T14:56:29.356Z,5.88
2018-12-10T15:01:31.896Z,5.98
2018-12-10T15:06:35.253Z,5.37
2018-12-10T15:11:37.920Z,5.57
2018-12-10T15:16:40.495Z,5.19
2018-12-10T15:21:43.030Z,5.44
2018-12-10T15:26:46.408Z,5.39
2018-12-10T15:31:49.286Z,5.47
2018-12-10T15:36:52.959Z,5.38
2018-12-10T15:41:55.668Z,5.64
2018-12-10T15:46:58.208Z,5.63
2018-12-10T15:52:00.790Z,5.72
2018-12-10T15:57:03.358Z,5.83
2018-12-10T16:02:06.244Z,5.78
2018-12-10T16:07:08.950Z,5.76
2018-12-10T16:12:12.188Z,5.75
2018-12-10T16:17:14.781Z,5.81
2018-12-10T16:22:17.346Z,5.69
2018-12-10T16:27:20.894Z,5.60
2018-12-10T16:32:23.489Z,5.34
2018-12-10T16:37:26.052Z,5.30
2018-12-10T16:42:29.350Z,5.61
2018-12-10T16:47:31.980Z,5.52
2018-12-10T16:52:34.574Z,5.63
2018-12-10T16:57:37.118Z,5.64
2018-12-10T17:02:40.677Z,5.54
2018-12-10T17:07:43.986Z,5.08
2018-12-10T17:12:46.574Z,5.53
2018-12-10T17:17:49.693Z,5.63
2018-12-10T17:22:52.309Z,5.69
2018-12-10T17:27:54.869Z,5.40
2018-12-10T17:32:57.508Z,5.62
2018-12-10T17:38:00.758Z,5.35
2018-12-10T17:43:03.993Z,5.59
2018-12-10T17:48:06.641Z,5.47
2018-12-10T17:53:09.210Z,5.14
2018-12-10T17:58:11.751Z,5.31
2018-12-10T18:03:14.292Z,5.59
2018-12-10T18:08:16.933Z,5.03
2018-12-10T18:13:19.473Z,5.07
2018-12-10T18:18:22.796Z,5.00
2018-12-10T18:23:25.985Z,5.29
2018-12-10T18:28:28.797Z,5.07
2018-12-10T18:33:31.578Z,4.84
2018-12-10T18:38:34.416Z,5.03
2018-12-10T18:43:37.573Z,4.93
2018-12-10T18:48:40.233Z,5.01
2018-12-10T18:53:42.828Z,4.42
2018-12-10T18:58:45.637Z,4.61
2018-12-10T19:03:48.257Z,4.72
2018-12-10T19:08:51.359Z,4.59
2018-12-10T19:13:54.741Z,4.83
2018-12-10T19:18:57.295Z,4.66
2018-12-10T19:23:59.884Z,4.60
2018-12-10T19:29:02.665Z,4.81
2018-12-10T19:34:05.315Z,4.54
2018-12-10T19:39:07.924Z,4.73
2018-12-10T19:44:11.294Z,4.77
2018-12-10T19:49:13.907Z,4.60
2018-12-10T19:54:16.479Z,4.87
2018-12-10T19:59:19.064Z,4.73
2018-12-10T20:04:21.915Z,4.49
2018-12-10T20:09:24.505Z,4.68
2018-12-10T20:14:27.454Z,4.83
2018-12-10T20:19:30.145Z,4.93
2018-12-10T20:24:32.889Z,4.90
2018-12-10T20:29:35.513Z,4.33
2018-12-10T20:34:38.893Z,4.25
2018-12-10T20:39:41.569Z,4.56
2018-12-10T20:44:44.444Z,4.17
2018-12-10T20:49:47.221Z,4.39
2018-12-10T20:54:50.917Z,4.71
2018-12-10T20:59:53.623Z,4.43
2018-12-10T21:04:56.241Z,4.32
2018-12-10T21:09:58.892Z,4.69
2018-12-10T21:15:01.507Z,4.92
2018-12-10T21:20:05.284Z,4.61
2018-12-10T21:25:08.658Z,4.92
2018-12-10T21:30:12.057Z,4.59
2018-12-10T21:35:14.738Z,4.73
2018-12-10T21:40:17.324Z,4.83
2018-12-10T21:45:19.953Z,4.88
2018-12-10T21:50:22.786Z,4.89
2018-12-10T21:55:25.469Z,4.84
2018-12-10T22:00:28.139Z,4.91
2018-12-10T22:05:30.720Z,4.65
2018-12-10T22:10:33.353Z,4.78
2018-12-10T22:15:35.913Z,4.66
2018-12-10T22:20:38.468Z,4.95
2018-12-10T22:25:41.060Z,4.75
2018-12-10T22:30:44.540Z,4.95
2018-12-10T22:35:47.831Z,4.72
2018-12-10T22:40:50.541Z,4.77
2018-12-10T22:45:53.314Z,4.41
2018-12-10T22:50:55.997Z,4.75
2018-12-10T22:55:58.536Z,4.54
2018-12-10T23:01:01.156Z,4.64
2018-12-10T23:06:03.776Z,4.88
2018-12-10T23:11:06.348Z,4.92
2018-12-10T23:16:08.961Z,4.69
2018-12-10T23:21:11.531Z,4.63
2018-12-10T23:26:14.167Z,4.75
2018-12-10T23:31:16.748Z,4.42
2018-12-10T23:36:19.371Z,4.22
2018-12-10T23:41:21.896Z,4.74
2018-12-10T23:46:24.491Z,4.55
2018-12-10T23:51:27.668Z,4.43
2018-12-10T23:56:30.246Z,4.56
